Welcome to Northern Hawkes Bay. New Zealand.
PWS Header
      nz Flag



Hit Counter


W3C Valid W3C Valid logo


    Wairoa

Select any of the Stations below to visit their websites.










Historic Data from Weather Underground
Select the location of interest below. Wairoa is the default. Please have patience, this Data is slow to load in.
Northern Hawkes Bay Historical Data
Daily Summary for March 18, 2017 Units:  English    Metric   Both
« Previous Day
Next Day »
Daily Weekly Monthly Yearly Custom
  High: Low: Average:
Temperature: 72.9 °F 54 °F 62.4 °F
Dew Point: 63.7 °F 53.1 °F 57.7 °F
Humidity: 99% 64% 86%
Wind Speed: 19mph 0mph 7.3mph
Wind Gust: 29.8mph - -
Wind- - West
Pressure: 30.4 in 30.2 in -
Precipitation: 0.01 in    
Historical Graphs
 
 
Tabular Data for March 18, 2017
Time Temperature Dew Point Pressure Wind Wind Speed Wind Gust Humidity Rainfall Rate (Hourly) solar
00:02 59.4 °F 57.6 °F 30.3 in Calm     94% 0 in 0 W/m2
00:07 59.4 °F 57.6 °F 30.3 in Calm     94% 0 in 0 W/m2
00:12 59.4 °F 57.6 °F 30.3 in Calm   2.2 mph 94% 0 in 0 W/m2
00:17 59.2 °F 57.6 °F 30.3 in Calm   2.2 mph 94% 0 in 0 W/m2
00:22 59.2 °F 57.6 °F 30.3 in Calm     94% 0 in 0 W/m2
00:27 59 °F 57.4 °F 30.3 in Calm     94% 0 in 0 W/m2
00:32 59 °F 57.4 °F 30.3 in NW 2.2 mph 4.5 mph 94% 0 in 0 W/m2
00:37 59 °F 57.4 °F 30.3 in NW 0.7 mph 4.5 mph 94% 0 in 0 W/m2
00:42 58.8 °F 57.4 °F 30.3 in NW 2.2 mph 4.5 mph 95% 0 in 0 W/m2
00:47 58.8 °F 57.4 °F 30.3 in NW 3.1 mph 3.8 mph 95% 0 in 0 W/m2
00:52 58.6 °F 57.2 °F 30.2 in NW 3.1 mph 4.5 mph 95% 0 in 0 W/m2
00:57 58.6 °F 57.2 °F 30.2 in NW 3.8 mph 5.4 mph 95% 0 in 0 W/m2
01:02 58.6 °F 57.6 °F 30.3 in NW 2.2 mph 5.4 mph 96% 0 in 0 W/m2
01:07 58.6 °F 57.6 °F 30.3 in NNW 3.1 mph 6 mph 96% 0 in 0 W/m2
01:12 58.6 °F 57.6 °F 30.3 in NNW 1.6 mph 6 mph 96% 0 in 0 W/m2
01:17 58.5 °F 57.4 °F 30.2 in NNW 2.2 mph 5.4 mph 96% 0 in 0 W/m2
01:22 58.5 °F 57.4 °F 30.2 in NNW 3.8 mph 6 mph 96% 0 in 0 W/m2
01:27 58.5 °F 57.4 °F 30.2 in NNW 3.8 mph 6 mph 96% 0 in 0 W/m2
01:32 58.5 °F 57.4 °F 30.2 in NNW 3.1 mph 5.4 mph 96% 0 in 0 W/m2
01:37 58.3 °F 57.2 °F 30.2 in NNW 3.1 mph 5.4 mph 96% 0 in 0 W/m2
01:42 58.3 °F 57.2 °F 30.2 in NNW 3.1 mph 5.4 mph 96% 0 in 0 W/m2
01:47 58.3 °F 57.2 °F 30.2 in NNW 1.6 mph 6 mph 96% 0 in 0 W/m2
01:52 58.1 °F 57 °F 30.2 in NW 2.2 mph 6.9 mph 96% 0 in 0 W/m2
01:57 58.1 °F 57 °F 30.2 in NNW 3.1 mph 6.9 mph 96% 0 in 0 W/m2
02:02 57.9 °F 56.8 °F 30.2 in Calm   4.5 mph 96% 0 in 0 W/m2
02:07 57.9 °F 56.8 °F 30.2 in NNW 1.6 mph 4.5 mph 96% 0 in 0 W/m2
02:12 57.7 °F 56.7 °F 30.2 in NNW 4.5 mph 6.9 mph 96% 0 in 0 W/m2
02:17 57.9 °F 57 °F 30.2 in NNW 3.8 mph 6.9 mph 97% 0 in 0 W/m2
02:22 57.7 °F 56.8 °F 30.2 in NNW 2.2 mph 6.9 mph 97% 0 in 0 W/m2
02:27 57.7 °F 56.8 °F 30.2 in NW 2.2 mph 5.4 mph 97% 0 in 0 W/m2
02:32 57.6 °F 56.7 °F 30.2 in NNW 4.5 mph 6 mph 97% 0 in 0 W/m2
02:37 57.4 °F 56.5 °F 30.2 in North 1.6 mph 6 mph 97% 0 in 0 W/m2
02:42 57.4 °F 56.5 °F 30.2 in NNW 2.2 mph 6 mph 97% 0 in 0 W/m2
02:47 57.2 °F 56.5 °F 30.2 in NNW 3.8 mph 5.4 mph 97% 0 in 0 W/m2
02:52 57.2 °F 56.5 °F 30.2 in NW 2.2 mph 6.9 mph 97% 0 in 0 W/m2
02:57 57.2 °F 56.5 °F 30.2 in NW 3.8 mph 6.9 mph 97% 0 in 0 W/m2
03:02 57.2 °F 56.5 °F 30.2 in NNW 1.6 mph 6 mph 97% 0 in 0 W/m2
03:07 57.2 °F 56.5 °F 30.2 in NNW 3.8 mph 6.9 mph 97% 0 in 0 W/m2
03:12 57.2 °F 56.5 °F 30.2 in NNW 0.7 mph 6.9 mph 97% 0 in 0 W/m2
03:17 57 °F 56.8 °F 30.2 in NNW 2.2 mph 6.9 mph 99% 0 in 0 W/m2
03:22 56.8 °F 56.7 °F 30.2 in NNW 2.2 mph 5.4 mph 99% 0 in 0 W/m2
03:27 56.7 °F 56.5 °F 30.2 in Calm   5.4 mph 99% 0 in 0 W/m2
03:32 56.5 °F 55.9 °F 30.2 in NNW 2.2 mph 3.1 mph 98% 0 in 0 W/m2
03:37 56.5 °F 56.1 °F 30.2 in North 1.6 mph 5.4 mph 99% 0 in 0 W/m2
03:42 56.5 °F 56.1 °F 30.2 in NNW 1.6 mph 6 mph 99% 0 in 0 W/m2
03:47 56.3 °F 55.9 °F 30.2 in NNW 0.7 mph 6 mph 99% 0 in 0 W/m2
03:52 56.3 °F 55.9 °F 30.2 in NNW 3.1 mph 3.8 mph 99% 0 in 0 W/m2
03:57 56.1 °F 55.9 °F 30.2 in North 3.1 mph 4.5 mph 99% 0 in 0 W/m2
04:02 56.1 °F 55.9 °F 30.2 in NNW 2.2 mph 4.5 mph 99% 0 in 0 W/m2
04:07 56.1 °F 55.9 °F 30.2 in NNW 3.1 mph 6 mph 99% 0 in 0 W/m2
04:12 56.1 °F 55.9 °F 30.2 in NNW 3.8 mph 6 mph 99% 0 in 0 W/m2
04:17 55.9 °F 55.8 °F 30.2 in NNW 3.1 mph 5.4 mph 99% 0 in 0 W/m2
04:22 55.9 °F 55.8 °F 30.2 in NNW 3.1 mph 5.4 mph 99% 0 in 0 W/m2
04:27 55.9 °F 55.8 °F 30.2 in NW 2.2 mph 5.4 mph 99% 0 in 0 W/m2
04:32 55.8 °F 55.6 °F 30.2 in NW 2.2 mph 5.4 mph 99% 0 in 0 W/m2
04:37 55.6 °F 55.2 °F 30.2 in NW 3.1 mph 5.4 mph 99% 0 in 0 W/m2
04:42 55.4 °F 55 °F 30.2 in Calm   5.4 mph 99% 0 in 0 W/m2
04:47 55.2 °F 54.3 °F 30.2 in NW 0.7 mph 3.8 mph 97% 0 in 0 W/m2
04:52 55.2 °F 54.3 °F 30.2 in Calm   3.8 mph 97% 0 in 0 W/m2
04:57 55.2 °F 54.3 °F 30.2 in Calm   3.1 mph 97% 0 in 0 W/m2
05:02 55.2 °F 54.3 °F 30.2 in Calm   2.2 mph 97% 0 in 0 W/m2
05:07 55.2 °F 54.3 °F 30.2 in Calm   3.1 mph 97% 0 in 0 W/m2
05:12 55.2 °F 54.3 °F 30.2 in NNW 3.8 mph 4.5 mph 97% 0 in 0 W/m2
05:30 55.2 °F 54.3 °F 30.2 in NNW 3.1 mph 6.9 mph 97% 0 in 0 W/m2
05:35 55.2 °F 54.3 °F 30.2 in NW 4.5 mph 7.6 mph 97% 0 in 0 W/m2
05:40 55 °F 54.1 °F 30.2 in NW 3.8 mph 8.3 mph 97% 0 in 0 W/m2
05:46 55 °F 54.1 °F 30.2 in NW 3.1 mph 8.3 mph 97% 0 in 0 W/m2
05:51 54.9 °F 54 °F 30.2 in NW 3.1 mph 6.9 mph 97% 0 in 0 W/m2
05:56 54.9 °F 54 °F 30.2 in NW 3.1 mph 6.9 mph 97% 0 in 0 W/m2
06:01 54.7 °F 54 °F 30.2 in NW 3.8 mph 6 mph 97% 0 in 0 W/m2
06:06 54.7 °F 54 °F 30.2 in NNW 3.8 mph 6.9 mph 97% 0 in 0 W/m2
06:11 54.7 °F 54 °F 30.2 in NNW 2.2 mph 7.6 mph 97% 0 in 0 W/m2
06:16 54.7 °F 54 °F 30.2 in NNW 4.5 mph 7.6 mph 97% 0 in 0 W/m2
06:21 54.7 °F 54 °F 30.2 in NNW 5.4 mph 6.9 mph 97% 0 in 0 W/m2
06:26 54.5 °F 53.8 °F 30.2 in NNW 5.4 mph 8.3 mph 97% 0 in 0 W/m2
06:31 54.5 °F 53.8 °F 30.2 in NNW 2.2 mph 8.3 mph 97% 0 in 0 W/m2
06:36 54.5 °F 53.8 °F 30.2 in NNW 4.5 mph 8.3 mph 97% 0 in 0 W/m2
06:41 54.3 °F 53.4 °F 30.2 in NNW 4.5 mph 8.3 mph 97% 0 in 0 W/m2
06:46 54.3 °F 53.4 °F 30.2 in NNW 3.1 mph 7.6 mph 97% 0 in 0 W/m2
06:51 54.3 °F 53.4 °F 30.2 in NNW 4.5 mph 7.6 mph 97% 0 in 0 W/m2
06:56 54.3 °F 53.4 °F 30.2 in NNW 4.5 mph 7.6 mph 97% 0 in 0 W/m2
07:01 54.3 °F 53.4 °F 30.2 in NNW 5.4 mph 6.9 mph 97% 0 in 0 W/m2
07:06 54.1 °F 53.2 °F 30.2 in NNW 3.8 mph 6.9 mph 97% 0 in 0 W/m2
07:11 54.3 °F 53.4 °F 30.2 in NNW 3.1 mph 8.3 mph 97% 0 in 2 W/m2
07:16 54.3 °F 53.4 °F 30.2 in NNW 5.4 mph 8.3 mph 97% 0 in 5 W/m2
07:26 54.1 °F 53.2 °F 30.2 in NW 4.5 mph 8.3 mph 97% 0 in 13 W/m2
07:31 54.1 °F 53.2 °F 30.2 in NNW 4.5 mph 8.3 mph 97% 0 in 16 W/m2
07:36 54 °F 53.1 °F 30.2 in NNW 5.4 mph 8.3 mph 97% 0 in 30 W/m2
07:41 54.3 °F 53.4 °F 30.2 in NNW 3.8 mph 6.9 mph 97% 0 in 82 W/m2
07:46 54.9 °F 54 °F 30.2 in NNW 3.1 mph 6.9 mph 97% 0 in 99 W/m2
07:51 55.4 °F 55 °F 30.2 in NW 4.5 mph 7.6 mph 99% 0 in 116 W/m2
07:56 55.8 °F 55.6 °F 30.2 in NNW 5.4 mph 8.3 mph 99% 0 in 135 W/m2
08:01 56.1 °F 55.2 °F 30.2 in NNW 5.4 mph 8.3 mph 97% 0 in 153 W/m2
08:06 56.7 °F 55.6 °F 30.2 in NNW 3.8 mph 7.6 mph 96% 0 in 168 W/m2
08:11 57.2 °F 55.6 °F 30.2 in North 3.1 mph 7.6 mph 94% 0 in 179 W/m2
08:16 57.9 °F 55.9 °F 30.2 in North 3.8 mph 7.6 mph 93% 0 in 193 W/m2
08:21 58.6 °F 56.3 °F 30.2 in NNW 3.8 mph 6 mph 92% 0 in 206 W/m2
08:26 59.4 °F 56.1 °F 30.2 in NNW 3.8 mph 6 mph 89% 0 in 219 W/m2
08:31 60.1 °F 56.1 °F 30.2 in NNW 3.8 mph 6 mph 87% 0 in 231 W/m2
08:36 60.3 °F 56.1 °F 30.2 in NW 3.1 mph 6 mph 86% 0 in 243 W/m2
08:41 60.6 °F 56.1 °F 30.2 in North 3.1 mph 7.6 mph 85% 0 in 252 W/m2
08:45 61.2 °F 56.3 °F 30.2 in North 3.8 mph 7.6 mph 84% 0 in 261 W/m2
08:50 61.3 °F 56.1 °F 30.2 in NNW 4.5 mph 9.2 mph 83% 0 in 271 W/m2
08:55 61.7 °F 56.5 °F 30.2 in North 4.5 mph 9.2 mph 83% 0 in 269 W/m2
09:00 61.7 °F 56.1 °F 30.2 in NNW 3.1 mph 8.3 mph 82% 0 in 259 W/m2
09:05 62.1 °F 56.5 °F 30.2 in NNW 2.2 mph 7.6 mph 82% 0 in 262 W/m2
09:10 62.8 °F 56.8 °F 30.2 in NNW 4.5 mph 7.6 mph 81% 0 in 307 W/m2
09:15 63 °F 57 °F 30.2 in NW 4.5 mph 6.9 mph 81% 0 in 326 W/m2
09:20 63.3 °F 57.4 °F 30.2 in NW 3.8 mph 7.6 mph 81% 0 in 344 W/m2
09:25 63.7 °F 57.4 °F 30.2 in NW 4.5 mph 7.6 mph 80% 0 in 330 W/m2
09:30 63.7 °F 57.4 °F 30.2 in NW 3.8 mph 9.2 mph 80% 0 in 336 W/m2
09:35 64.6 °F 57.9 °F 30.2 in NNW 1.6 mph 9.2 mph 79% 0 in 332 W/m2
09:40 65.3 °F 58.3 °F 30.2 in NNW 4.5 mph 7.6 mph 78% 0 in 356 W/m2
09:45 65.7 °F 58.6 °F 30.2 in NNW 1.6 mph 7.6 mph 78% 0 in 292 W/m2
09:50 65.8 °F 58.5 °F 30.2 in North 2.2 mph 6.9 mph 77% 0 in 272 W/m2
09:55 66 °F 58.6 °F 30.2 in NNW 2.2 mph 6 mph 77% 0 in 218 W/m2
10:00 66 °F 58.6 °F 30.2 in NW 0.7 mph 6 mph 77% 0 in 166 W/m2
10:05 65.8 °F 58.5 °F 30.2 in NW 1.6 mph 5.4 mph 77% 0 in 240 W/m2
10:10 66.2 °F 58.8 °F 30.2 in NW 3.1 mph 5.4 mph 77% 0 in 326 W/m2
10:15 66.9 °F 59.2 °F 30.2 in NW 3.8 mph 6 mph 76% 0 in 267 W/m2
10:20 67.1 °F 59.4 °F 30.2 in NNW 3.1 mph 6 mph 76% 0 in 383 W/m2
10:25 68 °F 59.4 °F 30.2 in NW 2.2 mph 6 mph 74% 0 in 357 W/m2
10:30 68.9 °F 59.9 °F 30.2 in NW 3.1 mph 6 mph 73% 0 in 218 W/m2
10:35 69.1 °F 59.4 °F 30.2 in NNW 2.2 mph 6.9 mph 71% 0 in 452 W/m2
10:40 70.3 °F 60.1 °F 30.2 in Calm   6.9 mph 70% 0 in 211 W/m2
10:45 72 °F 60.4 °F 30.2 in NW 0.7 mph 3.1 mph 67% 0 in 388 W/m2
10:50 72.1 °F 59.7 °F 30.2 in Calm   3.8 mph 65% 0 in 235 W/m2
10:55 72.9 °F 60.1 °F 30.2 in Calm   3.8 mph 64% 0 in 507 W/m2
11:00 72.5 °F 60.1 °F 30.2 in SW 6.9 mph 9.2 mph 65% 0 in 327 W/m2
11:05 70.2 °F 59.2 °F 30.2 in WSW 6.9 mph 9.2 mph 68% 0 in 309 W/m2
11:10 69.3 °F 60.6 °F 30.2 in SW 8.3 mph 10.7 mph 74% 0 in 241 W/m2
11:15 68.5 °F 60.3 °F 30.2 in SW 6.9 mph 11.4 mph 75% 0 in 473 W/m2
11:20 68.7 °F 61.5 °F 30.2 in SW 6 mph 11.4 mph 78% 0 in 417 W/m2
11:25 68.9 °F 61.9 °F 30.2 in SW 6.9 mph 10.7 mph 78% 0 in 394 W/m2
11:30 68.9 °F 62.1 °F 30.2 in SW 6.9 mph 10.7 mph 79% 0 in 452 W/m2
11:35 68.9 °F 61 °F 30.2 in SW 6 mph 11.4 mph 76% 0 in 421 W/m2
11:40 69.6 °F 61 °F 30.2 in SW 6.9 mph 11.4 mph 74% 0 in 561 W/m2
11:45 69.6 °F 61.7 °F 30.2 in SSW 12.1 mph 16.8 mph 76% 0 in 692 W/m2
11:47 69.1 °F 62.2 °F 30.2 in SSW 6.9 mph 16.8 mph 79% 0 in 487 W/m2
11:52 69.1 °F 63.7 °F 30.2 in SW 11.4 mph 16.8 mph 83% 0 in 432 W/m2
11:57 68.5 °F 63.1 °F 30.2 in SW 11.4 mph 14.5 mph 83% 0 in 416 W/m2
12:02 67.8 °F 61.2 °F 30.2 in SW 9.2 mph 15.2 mph 79% 0 in 453 W/m2
12:07 68 °F 61 °F 30.2 in SW 4.5 mph 15.2 mph 78% 0 in 298 W/m2
12:12 67.8 °F 60.6 °F 30.2 in WSW 9.2 mph 13.6 mph 78% 0 in 310 W/m2
12:17 67.1 °F 59.7 °F 30.2 in WSW 5.4 mph 12.1 mph 77% 0 in 358 W/m2
12:22 67.1 °F 59.7 °F 30.2 in SW 7.6 mph 12.1 mph 77% 0 in 334 W/m2
12:27 66.9 °F 59.5 °F 30.2 in SW 6.9 mph 15.2 mph 77% 0 in 479 W/m2
12:32 67.6 °F 60.6 °F 30.2 in SW 9.8 mph 15.2 mph 78% 0 in 759 W/m2
12:37 68.5 °F 60.6 °F 30.2 in SW 8.3 mph 13.6 mph 76% 0 in 638 W/m2
12:42 68.4 °F 60.3 °F 30.3 in WSW 6.9 mph 13.6 mph 75% 0 in 374 W/m2
12:47 68.2 °F 60.4 °F 30.3 in SW 6 mph 13.6 mph 76% 0 in 403 W/m2
12:52 68.4 °F 60.4 °F 30.2 in SW 6.9 mph 12.1 mph 76% 0 in 729 W/m2
12:57 69.4 °F 61.2 °F 30.2 in SW 7.6 mph 11.4 mph 75% 0 in 708 W/m2
13:02 69.6 °F 60.6 °F 30.3 in SSW 6.9 mph 11.4 mph 73% 0 in 614 W/m2
13:07 69.8 °F 60.4 °F 30.3 in SSW 8.3 mph 11.4 mph 72% 0 in 701 W/m2
13:12 69.3 °F 61 °F 30.3 in SW 9.2 mph 13.6 mph 75% 0 in 698 W/m2
13:17 69.4 °F 60.8 °F 30.3 in SW 6 mph 13.6 mph 74% 0 in 639 W/m2
13:22 69.8 °F 60.8 °F 30.3 in SW 6 mph 13.6 mph 73% 0 in 716 W/m2
13:27 70 °F 60.6 °F 30.3 in SW 6.9 mph 12.1 mph 72% 0 in 584 W/m2
13:32 70.3 °F 61.3 °F 30.2 in SW 6.9 mph 11.4 mph 73% 0 in 762 W/m2
13:37 70.9 °F 61 °F 30.2 in SW 6 mph 9.2 mph 71% 0 in 732 W/m2
13:42 71.6 °F 60.4 °F 30.2 in SSW 6 mph 9.2 mph 68% 0 in 729 W/m2
13:44 71.6 °F 59.7 °F 30.2 in SSW 5.4 mph 10.7 mph 66% 0 in 730 W/m2
13:49 72.3 °F 60.4 °F 30.2 in SSW 7.6 mph 10.7 mph 66% 0 in 752 W/m2
13:54 71.8 °F 59.7 °F 30.3 in SW 2.2 mph 10.7 mph 66% 0 in 756 W/m2
13:59 72.3 °F 59.9 °F 30.3 in SW 6 mph 9.8 mph 65% 0 in 773 W/m2
14:04 72.1 °F 59.4 °F 30.3 in SSW 9.2 mph 11.4 mph 64% 0 in 773 W/m2
14:09 72 °F 59.2 °F 30.2 in SSW 7.6 mph 12.1 mph 64% 0 in 684 W/m2
14:14 71.4 °F 59.9 °F 30.3 in SSW 6 mph 12.1 mph 67% 0 in 541 W/m2
14:19 72.1 °F 60.3 °F 30.3 in SSW 7.6 mph 10.7 mph 66% 0 in 612 W/m2
14:24 71.8 °F 59 °F 30.2 in SSW 6 mph 10.7 mph 64% 0 in 593 W/m2
14:29 71.4 °F 59.5 °F 30.2 in SSW 4.5 mph 10.7 mph 66% 0 in 355 W/m2
14:34 70.9 °F 58.6 °F 30.2 in SSW 5.4 mph 9.8 mph 65% 0 in 421 W/m2
14:39 70.2 °F 57.9 °F 30.2 in SSW 9.2 mph 12.1 mph 65% 0 in 304 W/m2
14:44 69.8 °F 57.6 °F 30.2 in SSW 7.6 mph 12.1 mph 65% 0 in 276 W/m2
14:49 69.4 °F 58.5 °F 30.2 in SSW 7.6 mph 12.1 mph 68% 0 in 375 W/m2
14:54 70 °F 58.5 °F 30.2 in SSW 6 mph 11.4 mph 67% 0 in 374 W/m2
14:59 70 °F 58.5 °F 30.2 in South 6 mph 11.4 mph 67% 0 in 340 W/m2
15:04 70.3 °F 58.8 °F 30.2 in South 9.2 mph 11.4 mph 67% 0 in 262 W/m2
15:09 69.6 °F 58.6 °F 30.2 in SSW 6 mph 15.2 mph 68% 0 in 286 W/m2
15:14 69.1 °F 58.5 °F 30.2 in SSW 13.6 mph 19 mph 69% 0 in 177 W/m2
15:19 67.8 °F 58.5 °F 30.2 in SSW 11.4 mph 19 mph 72% 0 in 288 W/m2
15:24 67.6 °F 58.6 °F 30.3 in SSW 13.6 mph 20.6 mph 73% 0 in 196 W/m2
15:29 67.1 °F 58.6 °F 30.3 in SSW 11.4 mph 23.5 mph 74% 0 in 183 W/m2
15:34 66.7 °F 58.6 °F 30.2 in SSW 13.6 mph 24.4 mph 75% 0 in 221 W/m2
15:39 66.7 °F 59 °F 30.3 in SSW 14.5 mph 27.3 mph 76% 0 in 266 W/m2
15:44 66.9 °F 59.5 °F 30.3 in SW 13.6 mph 27.3 mph 77% 0 in 224 W/m2
15:49 66.7 °F 59.4 °F 30.3 in SW 19 mph 24.4 mph 77% 0 in 254 W/m2
15:54 66.4 °F 59.4 °F 30.3 in SSW 15.9 mph 28.2 mph 78% 0 in 198 W/m2
15:59 66.2 °F 59.5 °F 30.3 in SSW 14.5 mph 28.2 mph 79% 0 in 198 W/m2
16:04 66.2 °F 59.5 °F 30.3 in SSW 15.9 mph 27.3 mph 79% 0 in 167 W/m2
16:09 65.7 °F 59.7 °F 30.3 in SSW 9.8 mph 25.1 mph 81% 0 in 149 W/m2
16:14 65.5 °F 59.9 °F 30.3 in SW 14.5 mph 21.3 mph 82% 0 in 75 W/m2
16:19 64.9 °F 59 °F 30.3 in SSW 13 mph 22.8 mph 81% 0 in 79 W/m2
16:24 64.6 °F 59 °F 30.3 in SW 12.1 mph 24.4 mph 82% 0 in 66 W/m2
16:29 64.6 °F 59.7 °F 30.3 in SW 13.6 mph 24.4 mph 84% 0 in 44 W/m2
16:34 64.2 °F 59 °F 30.3 in SW 13 mph 21.3 mph 83% 0 in 55 W/m2
16:39 64.2 °F 59.4 °F 30.3 in SW 13.6 mph 21.3 mph 84% 0 in 50 W/m2
16:44 64 °F 59.5 °F 30.3 in SW 9.8 mph 20.6 mph 85% 0 in 46 W/m2
16:49 63.9 °F 59.4 °F 30.3 in SW 11.4 mph 24.4 mph 85% 0 in 41 W/m2
16:55 64 °F 59.2 °F 30.3 in SW 13 mph 25.1 mph 84% 0 in 52 W/m2
17:00 64 °F 59.5 °F 30.3 in SW 14.5 mph 25.1 mph 85% 0 in 45 W/m2
17:05 64 °F 59.5 °F 30.3 in SW 13 mph 24.4 mph 85% 0 in 43 W/m2
17:10 64 °F 59.5 °F 30.3 in SW 16.8 mph 25.9 mph 85% 0 in 54 W/m2
17:15 64.2 °F 59.5 °F 30.3 in SW 13 mph 25.9 mph 85% 0 in 66 W/m2
17:20 64.2 °F 59.5 °F 30.3 in SW 19 mph 25.1 mph 85% 0 in 56 W/m2
17:25 64.2 °F 59.5 °F 30.3 in SSW 13.6 mph 27.3 mph 85% 0 in 60 W/m2
17:30 64.2 °F 59.5 °F 30.3 in SSW 14.5 mph 27.3 mph 85% 0 in 45 W/m2
17:35 64 °F 59.7 °F 30.3 in SSW 12.1 mph 22.8 mph 86% 0 in 49 W/m2
17:40 63.7 °F 59.4 °F 30.3 in SW 12.1 mph 28.2 mph 86% 0 in 14 W/m2
17:45 63.7 °F 59.7 °F 30.3 in SW 11.4 mph 28.2 mph 87% 0 in 23 W/m2
17:50 63.7 °F 59.7 °F 30.3 in SW 15.9 mph 27.3 mph 87% 0 in 35 W/m2
17:55 63.7 °F 59.7 °F 30.3 in SW 16.8 mph 26.6 mph 87% 0 in 23 W/m2
18:00 63.7 °F 59.4 °F 30.3 in SSW 10.7 mph 29.8 mph 86% 0 in 21 W/m2
18:06 63.7 °F 59.7 °F 30.3 in SW 15.2 mph 29.8 mph 87% 0 in 19 W/m2
18:11 63.7 °F 59.7 °F 30.3 in SW 15.9 mph 25.9 mph 87% 0 in 20 W/m2
18:16 63.7 °F 59.7 °F 30.3 in SW 13.6 mph 22.8 mph 87% 0 in 14 W/m2
18:21 63.5 °F 59.4 °F 30.3 in SW 17.4 mph 22.8 mph 86% 0 in 13 W/m2
18:26 63.5 °F 59.4 °F 30.3 in SSW 12.1 mph 24.4 mph 86% 0 in 9 W/m2
18:31 63.5 °F 59.5 °F 30.3 in SW 10.7 mph 25.1 mph 87% 0 in 4 W/m2
18:36 63.1 °F 59.5 °F 30.3 in SSW 13.6 mph 25.1 mph 88% 0 in 13 W/m2
18:41 63.1 °F 59.5 °F 30.3 in SSW 13.6 mph 24.4 mph 88% 0 in 8 W/m2
18:46 63 °F 59.4 °F 30.3 in SSW 15.2 mph 24.4 mph 88% 0 in 7 W/m2
18:51 63 °F 59 °F 30.3 in SW 13 mph 28.2 mph 87% 0 in 5 W/m2
18:56 63 °F 58.6 °F 30.3 in SW 13.6 mph 28.2 mph 86% 0 in 8 W/m2
19:01 63.1 °F 58.8 °F 30.3 in SW 11.4 mph 23.5 mph 86% 0 in 6 W/m2
19:06 63 °F 58.6 °F 30.3 in SSW 12.1 mph 22.8 mph 86% 0 in 3 W/m2
19:11 63 °F 58.6 °F 30.3 in SSW 13 mph 22.8 mph 86% 0 in 2 W/m2
19:16 62.6 °F 59 °F 30.3 in SSW 12.1 mph 22.1 mph 88% 0 in 0 W/m2
19:21 62.6 °F 59 °F 30.3 in SW 12.1 mph 21.3 mph 88% 0 in 0 W/m2
19:26 62.8 °F 58.8 °F 30.3 in SSW 10.7 mph 25.1 mph 87% 0 in 0 W/m2
19:31 63 °F 58.6 °F 30.3 in SSW 17.4 mph 25.1 mph 86% 0 in 0 W/m2
19:36 63.1 °F 58.8 °F 30.3 in SSW 15.9 mph 24.4 mph 86% 0 in 0 W/m2
19:41 63 °F 58.5 °F 30.3 in SSW 11.4 mph 24.4 mph 85% 0 in 0 W/m2
19:47 62.8 °F 58.3 °F 30.3 in SSW 12.1 mph 22.1 mph 85% 0 in 0 W/m2
19:52 62.6 °F 58.5 °F 30.3 in SSW 13.6 mph 21.3 mph 86% 0 in 0 W/m2
19:57 62.6 °F 58.6 °F 30.3 in SSW 13 mph 21.3 mph 87% 0 in 0 W/m2
20:02 62.6 °F 58.6 °F 30.3 in SSW 13 mph 21.3 mph 87% 0 in 0 W/m2
20:07 62.6 °F 59 °F 30.3 in SSW 11.4 mph 20.6 mph 88% 0 in 0 W/m2
20:12 62.6 °F 59 °F 30.3 in SSW 11.4 mph 22.1 mph 88% 0 in 0 W/m2
20:17 62.4 °F 59.2 °F 30.3 in SSW 14.5 mph 22.1 mph 89% 0 in 0 W/m2
20:22 62.4 °F 59.2 °F 30.3 in SW 12.1 mph 21.3 mph 89% 0 in 0 W/m2
20:27 62.2 °F 58.6 °F 30.3 in SSW 12.1 mph 24.4 mph 88% 0 in 0 W/m2
20:32 62.2 °F 59 °F 30.3 in SSW 13 mph 24.4 mph 89% 0 in 0 W/m2
20:37 62.1 °F 58.8 °F 30.3 in SSW 9.8 mph 28.2 mph 89% 0 in 0 W/m2
20:42 62.2 °F 58.6 °F 30.3 in SSW 9.8 mph 28.2 mph 88% 0 in 0 W/m2
20:47 62.4 °F 58.5 °F 30.3 in SSW 10.7 mph 23.5 mph 87% 0 in 0 W/m2
20:52 62.6 °F 57.9 °F 30.3 in SSW 13 mph 24.4 mph 85% 0 in 0 W/m2
20:57 62.6 °F 57.7 °F 30.3 in SSW 16.8 mph 28.9 mph 84% 0 in 0 W/m2
21:02 62.4 °F 57.9 °F 30.3 in SSW 15.2 mph 28.9 mph 85% 0 in 0 W/m2
21:07 62.1 °F 58.3 °F 30.3 in SSW 9.2 mph 22.8 mph 87% 0 in 0 W/m2
21:12 62.1 °F 57.7 °F 30.3 in SW 17.4 mph 24.4 mph 86% 0.01 in 0 W/m2
21:17 62.4 °F 57.9 °F 30.3 in SW 9.8 mph 25.1 mph 85% 0.01 in 0 W/m2
21:22 62.6 °F 57.7 °F 30.3 in SSW 15.9 mph 25.1 mph 84% 0.01 in 0 W/m2
21:27 62.6 °F 57.4 °F 30.3 in SSW 17.4 mph 22.1 mph 83% 0.01 in 0 W/m2
21:32 62.4 °F 57.6 °F 30.3 in SSW 13 mph 26.6 mph 84% 0.01 in 0 W/m2
21:37 62.1 °F 57.2 °F 30.3 in SSW 8.3 mph 26.6 mph 84% 0.01 in 0 W/m2
21:42 62.1 °F 57.2 °F 30.3 in SW 13.6 mph 26.6 mph 84% 0.01 in 0 W/m2
21:47 61.7 °F 56.8 °F 30.3 in SW 15.2 mph 22.8 mph 84% 0.01 in 0 W/m2
21:52 61.5 °F 56.7 °F 30.3 in SW 14.5 mph 22.8 mph 84% 0.01 in 0 W/m2
21:57 61.5 °F 57 °F 30.3 in SW 14.5 mph 24.4 mph 85% 0.01 in 0 W/m2
22:02 61.5 °F 57 °F 30.3 in SW 12.1 mph 24.4 mph 85% 0.01 in 0 W/m2
22:07 61.7 °F 56.8 °F 30.3 in SSW 12.1 mph 23.5 mph 84% 0.01 in 0 W/m2
22:12 61.9 °F 57.4 °F 30.4 in SW 14.5 mph 22.8 mph 85% 0 in 0 W/m2
22:17 61.9 °F 56.7 °F 30.3 in SSW 15.9 mph 23.5 mph 83% 0 in 0 W/m2
22:22 61.9 °F 56.7 °F 30.3 in SSW 11.4 mph 23.5 mph 83% 0 in 0 W/m2
22:27 61.7 °F 56.5 °F 30.3 in SSW 13 mph 22.8 mph 83% 0 in 0 W/m2
22:32 61.5 °F 56.7 °F 30.4 in SW 9.2 mph 22.1 mph 84% 0 in 0 W/m2
22:37 61.3 °F 56.5 °F 30.3 in SW 9.2 mph 24.4 mph 84% 0 in 0 W/m2
22:42 61.2 °F 56.3 °F 30.4 in SW 13 mph 24.4 mph 84% 0 in 0 W/m2
22:58 61.2 °F 56.7 °F 30.4 in SW 6.9 mph 23.5 mph 85% 0 in 0 W/m2
23:03 61 °F 56.8 °F 30.4 in SSW 14.5 mph 24.4 mph 86% 0 in 0 W/m2
23:08 61 °F 57 °F 30.4 in SSW 9.2 mph 24.4 mph 87% 0 in 0 W/m2
23:13 61.2 °F 57.4 °F 30.4 in SW 11.4 mph 24.4 mph 87% 0 in 0 W/m2
23:18 61.5 °F 56.3 °F 30.4 in SSW 9.2 mph 19.7 mph 83% 0 in 0 W/m2
23:23 61.9 °F 56.3 °F 30.4 in SSW 12.1 mph 19.7 mph 82% 0 in 0 W/m2
23:28 61.7 °F 56.1 °F 30.4 in SSW 12.1 mph 18.3 mph 82% 0 in 0 W/m2
23:33 61.5 °F 55.9 °F 30.4 in SSW 13.6 mph 19.7 mph 82% 0 in 0 W/m2
23:38 62.1 °F 55 °F 30.4 in SSW 10.7 mph 21.3 mph 78% 0 in 0 W/m2
23:43 62.1 °F 55.6 °F 30.4 in SSW 11.4 mph 21.3 mph 79% 0 in 0 W/m2
23:48 61.2 °F 55.6 °F 30.4 in SW 12.1 mph 21.3 mph 82% 0 in 0 W/m2
23:53 60.6 °F 55.8 °F 30.4 in SW 11.4 mph 21.3 mph 84% 0 in 0 W/m2
23:58 60.6 °F 56.1 °F 30.4 in SW 15.2 mph 22.8 mph 85% 0 in 0 W/m2
Northern Hawkes Bay. New Zealand Historic Data
Compliments of Weather Underground - 2 mb